Time;durP1;ratioP1;P1;durP2;ratioP2;P2;SDS_P1;SDS_P2;PMS_P1;PMS_P2;Temp;Humidity;BMP_temperature;BMP_pressure;BME280_temperature;BME280_humidity;BME280_pressure;Samples;Min_cycle;Max_cycle;Signal;HPM_P1;HPM_P2
2023/01/22 00:00:55;;;;;;;;;;;-2.30;99.90;;;;;;5055658;28;20277;-79
2023/01/22 00:03:20;;;;;;;;;;;-2.30;99.90;;;;;;5054708;28;19913;-79
2023/01/22 00:05:46;;;;;;;;;;;-2.30;99.90;;;;;;5053711;28;19919;-79
2023/01/22 00:08:12;;;;;;;;;;;-2.30;99.90;;;;;;5053333;28;19951;-79
2023/01/22 00:10:37;;;;;;;;;;;-2.30;99.90;;;;;;5054460;28;20000;-79
2023/01/22 00:13:03;;;;;;;;;;;-2.30;99.90;;;;;;5037480;28;19917;-79
2023/01/22 00:15:28;;;;;;;;;;;-2.30;99.90;;;;;;5055548;28;19913;-80
2023/01/22 00:17:54;;;;;;;;;;;-2.30;99.90;;;;;;5055618;28;19919;-80
2023/01/22 00:20:19;;;;;;;;;;;-2.30;99.90;;;;;;5055096;28;19975;-80
2023/01/22 00:22:45;;;;;;;;;;;-2.30;99.90;;;;;;5051987;28;19921;-79
2023/01/22 00:25:11;;;;;;;;;;;-2.30;99.90;;;;;;5055198;28;19913;-79
2023/01/22 00:27:37;;;;;;;;;;;-2.30;99.90;;;;;;5055367;28;19919;-80
2023/01/22 00:30:03;;;;;;;;;;;-2.30;99.90;;;;;;5055124;28;19955;-79
2023/01/22 00:32:28;;;;;;;;;;;-2.30;99.90;;;;;;5054897;28;19924;-79
2023/01/22 00:34:54;;;;;;;;;;;-2.30;99.90;;;;;;5054952;28;19917;-79
2023/01/22 00:37:20;;;;;;;;;;;-2.30;99.90;;;;;;5054459;28;19944;-78
2023/01/22 00:39:46;;;;;;;;;;;-2.20;99.90;;;;;;5054450;28;19917;-79
2023/01/22 00:42:11;;;;;;;;;;;-2.20;99.90;;;;;;5055148;28;19916;-79
2023/01/22 00:44:37;;;;;;;;;;;-2.20;99.90;;;;;;5055272;28;19952;-78
2023/01/22 00:47:02;;;;;;;;;;;-2.20;99.90;;;;;;5054937;28;19912;-79
2023/01/22 00:49:28;;;;;;;;;;;-2.20;99.90;;;;;;5054426;28;19916;-79
2023/01/22 00:51:53;;;;;;;;;;;-2.20;99.90;;;;;;5045740;28;20028;-79
2023/01/22 00:54:19;;;;;;;;;;;-2.20;99.90;;;;;;5048123;28;19915;-79
2023/01/22 00:56:44;;;;;;;;;;;-2.20;99.90;;;;;;5055850;28;19920;-79
2023/01/22 00:59:10;;;;;;;;;;;-2.20;99.90;;;;;;5055661;28;19913;-79
2023/01/22 01:01:37;;;;;;;;;;;-2.20;99.90;;;;;;5054061;28;19963;-79
2023/01/22 01:04:02;;;;;;;;;;;-2.20;99.90;;;;;;5055605;28;20280;-79
2023/01/22 01:06:28;;;;;;;;;;;-2.20;99.90;;;;;;5050208;28;19913;-79
2023/01/22 01:08:54;;;;;;;;;;;-2.20;99.90;;;;;;5053508;28;19913;-79
2023/01/22 01:11:24;;;;;;;;;;;-2.20;99.90;;;;;;5052902;28;19917;-79
2023/01/22 01:13:50;;;;;;;;;;;-2.20;99.90;;;;;;5041332;28;19909;-79
2023/01/22 01:16:23;;;;;;;;;;;-2.30;99.90;;;;;;5054566;28;19909;-79
2023/01/22 01:18:49;;;;;;;;;;;-2.30;99.90;;;;;;5054540;28;19913;-78
2023/01/22 01:21:15;;;;;;;;;;;-2.30;99.90;;;;;;5057984;28;19962;-79
2023/01/22 01:23:41;;;;;;;;;;;-2.30;99.90;;;;;;5057717;28;19916;-78
2023/01/22 01:26:08;;;;;;;;;;;-2.30;99.90;;;;;;5058503;28;19909;-79
2023/01/22 01:28:35;;;;;;;;;;;-2.30;99.90;;;;;;5058532;28;19909;-78
2023/01/22 01:31:04;;;;;;;;;;;-2.30;99.90;;;;;;5057893;28;19917;-78
2023/01/22 01:33:31;;;;;;;;;;;-2.30;99.90;;;;;;5058523;28;19917;-79
2023/01/22 01:36:00;;;;;;;;;;;-2.30;99.90;;;;;;5056852;28;19909;-79
2023/01/22 01:38:26;;;;;;;;;;;-2.30;99.90;;;;;;5056413;28;19935;-79
2023/01/22 01:40:52;;;;;;;;;;;-2.30;99.90;;;;;;5057846;28;19909;-79
2023/01/22 01:43:17;;;;;;;;;;;-2.30;99.90;;;;;;5057746;28;19916;-80
2023/01/22 01:45:43;;;;;;;;;;;-2.30;99.90;;;;;;5054593;28;19912;-79
2023/01/22 01:48:18;;;;;;;;;;;-2.30;99.90;;;;;;5056292;28;19916;-79
2023/01/22 01:50:46;;;;;;;;;;;-2.30;99.90;;;;;;5055673;28;19909;-79
2023/01/22 01:53:12;;;;;;;;;;;-2.30;99.90;;;;;;5072378;28;19909;-80
2023/01/22 01:55:38;;;;;;;;;;;-2.30;99.90;;;;;;5057157;28;19924;-79
2023/01/22 01:58:07;;;;;;;;;;;-2.30;99.90;;;;;;5057604;28;19909;-79
2023/01/22 02:00:33;;;;;;;;;;;-2.30;99.90;;;;;;5054945;28;19942;-80
2023/01/22 02:02:59;;;;;;;;;;;-2.30;99.90;;;;;;5053315;28;20281;-80
2023/01/22 02:05:27;;;;;;;;;;;-2.30;99.90;;;;;;5048099;28;19909;-79
2023/01/22 02:07:52;;;;;;;;;;;-2.30;99.90;;;;;;5055591;28;20003;-80
2023/01/22 02:10:18;;;;;;;;;;;-2.30;99.90;;;;;;5056800;28;19990;-80
2023/01/22 02:12:44;;;;;;;;;;;-2.30;99.90;;;;;;5057303;28;19966;-80
2023/01/22 02:15:09;;;;;;;;;;;-2.30;99.90;;;;;;5056630;28;20004;-80
2023/01/22 02:17:35;;;;;;;;;;;-2.30;99.90;;;;;;5058004;28;20296;-80
2023/01/22 02:20:01;;;;;;;;;;;-2.30;99.90;;;;;;5056153;28;19971;-80
2023/01/22 02:22:28;;;;;;;;;;;-2.30;99.90;;;;;;5056306;28;19987;-80
2023/01/22 02:24:53;;;;;;;;;;;-2.40;99.90;;;;;;5057493;28;19908;-80
2023/01/22 02:27:19;;;;;;;;;;;-2.40;99.90;;;;;;5056620;28;20007;-80
2023/01/22 02:29:44;;;;;;;;;;;-2.40;99.90;;;;;;5055772;28;19913;-81
2023/01/22 02:32:10;;;;;;;;;;;-2.40;99.90;;;;;;5057124;28;19924;-80
2023/01/22 02:34:36;;;;;;;;;;;-2.50;99.90;;;;;;5056859;28;19910;-80
2023/01/22 02:37:02;;;;;;;;;;;-2.40;99.90;;;;;;5053833;28;20008;-80
2023/01/22 02:39:27;;;;;;;;;;;-2.50;99.90;;;;;;5053501;28;19959;-79
2023/01/22 02:41:53;;;;;;;;;;;-2.50;99.90;;;;;;5055181;28;19913;-79
2023/01/22 02:44:19;;;;;;;;;;;-2.50;99.90;;;;;;5052682;28;19913;-80
2023/01/22 02:46:44;;;;;;;;;;;-2.50;99.90;;;;;;5057589;28;19913;-80
2023/01/22 02:49:10;;;;;;;;;;;-2.50;99.90;;;;;;5055852;28;19955;-80
2023/01/22 02:51:35;;;;;;;;;;;-2.60;99.90;;;;;;5055040;28;19944;-79
2023/01/22 02:54:01;;;;;;;;;;;-2.60;99.90;;;;;;5056275;28;19917;-80
2023/01/22 02:56:26;;;;;;;;;;;-2.60;99.90;;;;;;5060197;28;19915;-80
2023/01/22 02:58:52;;;;;;;;;;;-2.70;99.90;;;;;;5056925;28;19963;-80
2023/01/22 03:01:19;;;;;;;;;;;-2.70;99.90;;;;;;5054288;28;19916;-80
2023/01/22 03:03:55;;;;;;;;;;;-2.70;99.90;;;;;;5056239;28;20364;-80
2023/01/22 03:06:21;;;;;;;;;;;-2.70;99.90;;;;;;5056548;28;19909;-80
2023/01/22 03:08:57;;;;;;;;;;;-2.80;99.90;;;;;;5054719;28;19924;-79
2023/01/22 03:11:23;;;;;;;;;;;-2.80;99.90;;;;;;5050011;28;19980;-80
2023/01/22 03:22:02;;;;;;;;;;;-3.10;99.90;;;;;;5056897;28;20448;-80
2023/01/22 03:24:28;;;;;;;;;;;-3.20;99.90;;;;;;5055274;28;19956;-80
2023/01/22 03:26:53;;;;;;;;;;;-3.20;99.90;;;;;;5054881;28;20011;-80
2023/01/22 03:29:19;;;;;;;;;;;-3.20;99.90;;;;;;5053985;28;19913;-79
2023/01/22 03:31:47;;;;;;;;;;;-3.20;99.90;;;;;;5055741;28;19967;-79
2023/01/22 03:34:13;;;;;;;;;;;-3.20;99.90;;;;;;5053645;28;19913;-79
2023/01/22 03:36:39;;;;;;;;;;;-3.30;99.90;;;;;;5054622;28;19978;-79
2023/01/22 03:39:04;;;;;;;;;;;-3.30;99.90;;;;;;5053947;28;19913;-80
2023/01/22 03:41:30;;;;;;;;;;;-3.30;99.90;;;;;;5056182;28;19952;-80
2023/01/22 03:43:57;;;;;;;;;;;-3.30;99.90;;;;;;5054522;28;19913;-79
2023/01/22 03:46:23;;;;;;;;;;;-3.30;99.90;;;;;;5054539;28;20054;-79
2023/01/22 03:48:49;;;;;;;;;;;-3.40;99.90;;;;;;5055097;28;19959;-79
2023/01/22 03:51:15;;;;;;;;;;;-3.50;99.90;;;;;;5055564;28;20046;-80
2023/01/22 03:53:42;;;;;;;;;;;-3.50;99.90;;;;;;5055417;28;20325;-79
2023/01/22 03:56:10;;;;;;;;;;;-3.60;99.90;;;;;;5052905;28;19912;-79
2023/01/22 03:58:36;;;;;;;;;;;-3.60;99.90;;;;;;5055076;28;19996;-79
2023/01/22 04:01:02;;;;;;;;;;;-3.70;99.90;;;;;;5054445;28;19971;-79
2023/01/22 04:03:28;;;;;;;;;;;-3.70;99.90;;;;;;5055594;28;20357;-79
2023/01/22 04:05:55;;;;;;;;;;;-3.80;99.90;;;;;;5066502;22;19925;-80
2023/01/22 04:08:20;;;;;;;;;;;-3.80;99.90;;;;;;5055187;28;19929;-80
2023/01/22 04:10:46;;;;;;;;;;;-3.80;99.90;;;;;;5055084;28;19921;-80
2023/01/22 04:13:12;;;;;;;;;;;-3.80;99.90;;;;;;5054097;28;20012;-80
2023/01/22 04:15:37;;;;;;;;;;;-3.80;99.90;;;;;;5037236;28;19917;-80
2023/01/22 04:18:03;;;;;;;;;;;-3.80;99.90;;;;;;5055614;28;20390;-80
2023/01/22 04:20:29;;;;;;;;;;;-3.70;99.90;;;;;;5054846;28;19974;-79
2023/01/22 04:22:54;;;;;;;;;;;-3.70;99.90;;;;;;5055056;28;20485;-79
2023/01/22 04:25:20;;;;;;;;;;;-3.70;99.90;;;;;;5053835;28;19920;-80
2023/01/22 04:27:46;;;;;;;;;;;-3.60;99.90;;;;;;5053091;28;20000;-80
2023/01/22 04:30:11;;;;;;;;;;;-3.60;99.90;;;;;;5053662;28;20276;-80
2023/01/22 04:32:37;;;;;;;;;;;-3.70;99.90;;;;;;5053070;28;19921;-79
2023/01/22 04:35:03;;;;;;;;;;;-3.70;99.90;;;;;;5052389;28;20392;-80
2023/01/22 04:37:29;;;;;;;;;;;-3.80;99.90;;;;;;5053570;28;19913;-80
2023/01/22 04:39:54;;;;;;;;;;;-3.90;99.90;;;;;;5036190;28;19920;-80
2023/01/22 04:42:20;;;;;;;;;;;-3.90;99.90;;;;;;5053349;28;19913;-80
2023/01/22 04:44:45;;;;;;;;;;;-3.90;99.90;;;;;;5053204;28;19913;-79
2023/01/22 04:47:11;;;;;;;;;;;-3.90;99.90;;;;;;5053411;28;19920;-80
2023/01/22 04:49:36;;;;;;;;;;;-3.90;99.90;;;;;;5036138;28;19971;-80
2023/01/22 04:52:02;;;;;;;;;;;-3.90;99.90;;;;;;5054724;28;19951;-80
2023/01/22 04:54:28;;;;;;;;;;;-3.90;99.90;;;;;;5052161;28;20380;-79
2023/01/22 04:56:53;;;;;;;;;;;-3.90;99.90;;;;;;5053800;28;19913;-80
2023/01/22 04:59:19;;;;;;;;;;;-4.00;99.90;;;;;;5020594;28;19940;-80
2023/01/22 05:01:44;;;;;;;;;;;-4.00;99.90;;;;;;5035452;28;19912;-80
2023/01/22 05:04:10;;;;;;;;;;;-3.90;99.90;;;;;;5053196;28;20291;-80
2023/01/22 05:06:36;;;;;;;;;;;-3.90;99.90;;;;;;5037220;28;19917;-80
2023/01/22 05:09:01;;;;;;;;;;;-3.90;99.90;;;;;;5035413;28;19908;-80
2023/01/22 05:11:28;;;;;;;;;;;-4.00;99.90;;;;;;5053681;28;20471;-80
2023/01/22 05:13:54;;;;;;;;;;;-4.00;99.90;;;;;;5035149;28;20280;-80
2023/01/22 05:16:20;;;;;;;;;;;-4.00;99.90;;;;;;5054886;28;19935;-79
2023/01/22 05:18:45;;;;;;;;;;;-4.00;99.90;;;;;;5036408;28;19959;-80
2023/01/22 05:21:11;;;;;;;;;;;-4.00;99.90;;;;;;5055029;28;19912;-80
2023/01/22 05:23:36;;;;;;;;;;;-4.00;99.90;;;;;;5056333;28;19927;-79
2023/01/22 05:26:02;;;;;;;;;;;-3.90;99.90;;;;;;5023155;28;19920;-79
2023/01/22 05:28:27;;;;;;;;;;;-3.90;99.90;;;;;;5037319;28;19917;-79
2023/01/22 05:30:53;;;;;;;;;;;-3.90;99.90;;;;;;5053134;28;19971;-79
2023/01/22 05:33:19;;;;;;;;;;;-4.00;99.90;;;;;;5054283;28;20299;-80
2023/01/22 05:35:44;;;;;;;;;;;-4.00;99.90;;;;;;5052294;28;19927;-80
2023/01/22 05:38:10;;;;;;;;;;;-4.00;99.90;;;;;;5054250;28;20373;-79
2023/01/22 05:40:35;;;;;;;;;;;-4.00;99.90;;;;;;5055158;28;20016;-80
2023/01/22 05:43:01;;;;;;;;;;;-4.00;99.90;;;;;;5037426;28;20019;-80
2023/01/22 05:45:27;;;;;;;;;;;-4.00;99.90;;;;;;5054847;28;19917;-79
2023/01/22 05:47:53;;;;;;;;;;;-3.90;99.90;;;;;;5055576;28;19919;-79
2023/01/22 05:50:19;;;;;;;;;;;-3.90;99.90;;;;;;5053400;28;19913;-81
2023/01/22 05:52:44;;;;;;;;;;;-3.80;99.90;;;;;;5041588;28;19916;-81
2023/01/22 05:55:10;;;;;;;;;;;-3.80;99.90;;;;;;5056875;28;20284;-81
2023/01/22 05:57:36;;;;;;;;;;;-3.70;99.90;;;;;;5039291;28;20336;-82
2023/01/22 06:00:02;;;;;;;;;;;-3.70;99.90;;;;;;5037563;28;19912;-81
2023/01/22 06:02:28;;;;;;;;;;;-3.70;99.90;;;;;;5041415;28;20280;-81
2023/01/22 06:04:53;;;;;;;;;;;-3.70;99.90;;;;;;5053957;28;19920;-81
2023/01/22 06:07:19;;;;;;;;;;;-3.80;99.90;;;;;;5060012;28;20351;-81
2023/01/22 06:09:45;;;;;;;;;;;-3.80;99.90;;;;;;5068785;28;19912;-81
2023/01/22 06:12:10;;;;;;;;;;;-3.80;99.90;;;;;;5062600;28;19924;-81
2023/01/22 06:14:36;;;;;;;;;;;-3.90;99.90;;;;;;5046702;28;19917;-81
2023/01/22 06:17:01;;;;;;;;;;;-3.90;99.90;;;;;;5059830;28;19913;-81
2023/01/22 06:19:27;;;;;;;;;;;-3.90;99.90;;;;;;5042335;28;19909;-81
2023/01/22 06:21:53;;;;;;;;;;;-3.80;99.90;;;;;;5042559;28;19920;-81
2023/01/22 06:24:18;;;;;;;;;;;-3.80;99.90;;;;;;5042148;28;19912;-81
2023/01/22 06:26:44;;;;;;;;;;;-3.80;99.90;;;;;;5059924;28;19967;-81
2023/01/22 06:29:09;;;;;;;;;;;-3.80;99.90;;;;;;5040685;28;20015;-81
2023/01/22 06:31:35;;;;;;;;;;;-3.80;99.90;;;;;;5041082;28;19924;-81
2023/01/22 06:34:01;;;;;;;;;;;-3.80;99.90;;;;;;5059345;28;19913;-80
2023/01/22 06:36:26;;;;;;;;;;;-3.80;99.90;;;;;;5040136;28;19912;-80
2023/01/22 06:38:52;;;;;;;;;;;-3.70;99.90;;;;;;5051112;28;19909;-81
2023/01/22 06:41:17;;;;;;;;;;;-3.70;99.90;;;;;;5058273;28;20015;-80
2023/01/22 06:43:43;;;;;;;;;;;-3.70;99.90;;;;;;5060374;28;19983;-81
2023/01/22 06:46:08;;;;;;;;;;;-3.60;99.90;;;;;;5059743;28;19909;-82
2023/01/22 06:48:34;;;;;;;;;;;-3.60;99.90;;;;;;5060123;28;19920;-81
2023/01/22 06:51:00;;;;;;;;;;;-3.60;99.90;;;;;;5060817;28;19996;-81
2023/01/22 06:53:25;;;;;;;;;;;-3.60;99.90;;;;;;5042688;28;19913;-81
2023/01/22 06:55:51;;;;;;;;;;;-3.60;99.90;;;;;;5058402;28;19913;-81
2023/01/22 06:58:17;;;;;;;;;;;-3.60;99.90;;;;;;5057739;28;19916;-81
2023/01/22 07:00:42;;;;;;;;;;;-3.60;99.90;;;;;;5058193;28;19919;-81
2023/01/22 07:03:08;;;;;;;;;;;-3.60;99.90;;;;;;5057769;28;20335;-81
2023/01/22 07:05:33;;;;;;;;;;;-3.60;99.90;;;;;;5057144;28;19974;-79
2023/01/22 07:07:59;;;;;;;;;;;-3.60;99.90;;;;;;5043796;28;20343;-79
2023/01/22 07:10:25;;;;;;;;;;;-3.60;99.90;;;;;;5045157;28;20268;-79
2023/01/22 07:12:55;;;;;;;;;;;-3.60;99.90;;;;;;5045188;28;19913;-79
2023/01/22 07:15:20;;;;;;;;;;;-3.60;99.90;;;;;;5060171;28;19909;-79
2023/01/22 07:17:50;;;;;;;;;;;-3.60;99.90;;;;;;5061458;28;20152;-79
2023/01/22 07:20:16;;;;;;;;;;;-3.50;99.90;;;;;;5041189;28;19909;-79
2023/01/22 07:22:41;;;;;;;;;;;-3.50;99.90;;;;;;5061293;28;19919;-79
2023/01/22 07:25:07;;;;;;;;;;;-3.40;99.90;;;;;;5062149;28;19917;-80
2023/01/22 07:27:33;;;;;;;;;;;-3.30;99.90;;;;;;5065003;28;19956;-80
2023/01/22 07:29:59;;;;;;;;;;;-3.30;99.90;;;;;;5063254;28;19913;-79
2023/01/22 07:32:25;;;;;;;;;;;-3.30;99.90;;;;;;5045129;28;19924;-79
2023/01/22 07:34:50;;;;;;;;;;;-3.20;99.90;;;;;;5042704;28;19969;-80
2023/01/22 07:37:16;;;;;;;;;;;-3.20;99.90;;;;;;5044062;28;19919;-79
2023/01/22 07:39:42;;;;;;;;;;;-3.10;99.90;;;;;;5064353;28;19908;-80
2023/01/22 07:42:07;;;;;;;;;;;-3.00;99.90;;;;;;5064937;28;19920;-80
2023/01/22 07:44:33;;;;;;;;;;;-3.00;99.90;;;;;;5060446;28;19909;-79
2023/01/22 07:46:58;;;;;;;;;;;-3.00;99.90;;;;;;5050777;28;19935;-80
2023/01/22 07:49:24;;;;;;;;;;;-3.00;99.90;;;;;;5078065;28;19939;-80
2023/01/22 07:51:50;;;;;;;;;;;-3.00;99.90;;;;;;5075962;28;19952;-80
2023/01/22 07:54:15;;;;;;;;;;;-2.90;99.90;;;;;;5058858;28;19920;-80
2023/01/22 07:56:41;;;;;;;;;;;-2.90;99.90;;;;;;5079014;28;20050;-79
2023/01/22 07:59:06;;;;;;;;;;;-2.80;99.90;;;;;;5076807;28;19992;-79
2023/01/22 08:01:32;;;;;;;;;;;-2.80;99.90;;;;;;5078029;28;19893;-79
2023/01/22 08:03:58;;;;;;;;;;;-2.80;99.90;;;;;;5078220;28;19920;-79
2023/01/22 08:06:24;;;;;;;;;;;-2.70;99.90;;;;;;5078701;28;19939;-79
2023/01/22 08:08:49;;;;;;;;;;;-2.70;99.90;;;;;;5060928;28;19913;-79
2023/01/22 08:11:27;;;;;;;;;;;-2.70;99.90;;;;;;5074340;28;19920;-80
2023/01/22 08:13:53;;;;;;;;;;;-2.80;99.90;;;;;;5039218;28;19909;-79
2023/01/22 08:16:19;;;;;;;;;;;-2.70;99.90;;;;;;5062717;28;19912;-79
2023/01/22 08:18:45;;;;;;;;;;;-2.70;99.90;;;;;;5040190;28;19919;-79
2023/01/22 08:21:10;;;;;;;;;;;-2.70;99.90;;;;;;5057535;28;19935;-82
2023/01/22 08:23:36;;;;;;;;;;;-2.70;99.90;;;;;;5057352;28;19909;-79
2023/01/22 08:26:02;;;;;;;;;;;-2.70;99.90;;;;;;5058090;28;19909;-83
2023/01/22 08:28:28;;;;;;;;;;;-2.70;99.90;;;;;;5059868;28;19909;-79
2023/01/22 08:30:57;;;;;;;;;;;-2.70;99.90;;;;;;5063023;28;19909;-80
2023/01/22 08:33:23;;;;;;;;;;;-2.70;99.90;;;;;;5063693;28;20380;-79
2023/01/22 08:35:49;;;;;;;;;;;-2.70;99.90;;;;;;5045686;28;19936;-80
2023/01/22 08:38:14;;;;;;;;;;;-2.70;99.90;;;;;;5063004;28;20292;-82
2023/01/22 08:40:40;;;;;;;;;;;-2.70;99.90;;;;;;5044644;28;20709;-83
2023/01/22 08:43:05;;;;;;;;;;;-2.80;99.90;;;;;;5063453;28;19912;-83
2023/01/22 08:45:31;;;;;;;;;;;-2.70;99.90;;;;;;5061014;28;19915;-81
2023/01/22 08:47:58;;;;;;;;;;;-2.70;99.90;;;;;;5062498;28;19956;-80
2023/01/22 08:50:24;;;;;;;;;;;-2.80;99.90;;;;;;5043381;28;19917;-81
2023/01/22 08:52:50;;;;;;;;;;;-2.80;99.90;;;;;;5063328;28;19912;-82
2023/01/22 08:55:18;;;;;;;;;;;-2.70;99.90;;;;;;5062191;28;19913;-80
2023/01/22 08:57:50;;;;;;;;;;;-2.70;99.90;;;;;;5045558;28;19917;-82
2023/01/22 09:00:16;;;;;;;;;;;-2.60;99.90;;;;;;5062863;28;19917;-81
2023/01/22 09:02:41;;;;;;;;;;;-2.60;99.90;;;;;;5062842;28;20007;-82
2023/01/22 09:05:07;;;;;;;;;;;-2.60;99.90;;;;;;5059110;28;19913;-82
2023/01/22 09:07:35;;;;;;;;;;;-2.50;99.90;;;;;;5061705;28;19927;-83
2023/01/22 09:10:01;;;;;;;;;;;-2.50;99.90;;;;;;5061504;28;19967;-80
2023/01/22 09:12:26;;;;;;;;;;;-2.50;99.90;;;;;;5040643;28;19917;-82
2023/01/22 09:14:52;;;;;;;;;;;-2.50;99.90;;;;;;5040390;28;19900;-81
2023/01/22 09:17:17;;;;;;;;;;;-2.50;99.90;;;;;;5055657;22;20409;-75
2023/01/22 09:19:43;;;;;;;;;;;-2.40;99.90;;;;;;5032288;28;19956;-75
2023/01/22 09:22:08;;;;;;;;;;;-2.40;99.90;;;;;;5033802;28;19909;-75
2023/01/22 09:24:34;;;;;;;;;;;-2.40;99.90;;;;;;5033510;28;19964;-75
2023/01/22 09:27:00;;;;;;;;;;;-2.30;99.90;;;;;;5033541;28;20344;-76
2023/01/22 09:29:25;;;;;;;;;;;-2.30;99.90;;;;;;5033427;28;19909;-75
2023/01/22 09:31:51;;;;;;;;;;;-2.20;99.90;;;;;;5033188;28;19952;-76
2023/01/22 09:34:16;;;;;;;;;;;-2.20;99.90;;;;;;5032157;28;19996;-75
2023/01/22 09:36:42;;;;;;;;;;;-2.10;99.90;;;;;;5033441;28;19914;-75
2023/01/22 09:39:08;;;;;;;;;;;-2.10;99.90;;;;;;5033374;28;19914;-75
2023/01/22 09:41:36;;;;;;;;;;;-2.00;99.90;;;;;;5035456;28;20365;-75
2023/01/22 09:44:05;;;;;;;;;;;-2.00;99.90;;;;;;5035810;28;19945;-76
2023/01/22 09:46:45;;;;;;;;;;;-2.00;99.90;;;;;;5028336;28;19955;-75
2023/01/22 09:49:18;;;;;;;;;;;-2.00;99.90;;;;;;5017357;28;19917;-75
2023/01/22 09:51:46;;;;;;;;;;;-2.00;99.90;;;;;;5017390;28;19918;-75
2023/01/22 09:54:14;;;;;;;;;;;-1.80;99.90;;;;;;5016241;28;19968;-75
2023/01/22 09:56:44;;;;;;;;;;;-1.80;99.90;;;;;;5015819;28;19913;-75
2023/01/22 09:59:13;;;;;;;;;;;-1.80;99.90;;;;;;5017004;28;20262;-75
2023/01/22 10:01:39;;;;;;;;;;;-1.80;99.90;;;;;;5014703;28;19975;-75
2023/01/22 10:04:19;;;;;;;;;;;-1.80;99.90;;;;;;5015170;28;19920;-75
2023/01/22 10:06:45;;;;;;;;;;;-1.80;99.90;;;;;;5015784;28;19952;-75
2023/01/22 10:09:18;;;;;;;;;;;-1.70;99.90;;;;;;5016847;28;19953;-74
2023/01/22 10:11:45;;;;;;;;;;;-1.60;99.90;;;;;;5016892;28;19917;-75
2023/01/22 10:14:13;;;;;;;;;;;-1.60;99.90;;;;;;5015663;28;20370;-75
2023/01/22 10:16:39;;;;;;;;;;;-1.60;99.90;;;;;;5016740;28;19917;-75
2023/01/22 10:19:16;;;;;;;;;;;-1.60;99.90;;;;;;5017102;28;19913;-75
2023/01/22 10:21:44;;;;;;;;;;;-1.50;99.90;;;;;;5016498;28;19909;-74
2023/01/22 10:24:10;;;;;;;;;;;-1.50;99.90;;;;;;5017181;28;20393;-75
2023/01/22 10:26:40;;;;;;;;;;;-1.40;99.90;;;;;;5016767;28;20281;-75
2023/01/22 10:29:07;;;;;;;;;;;-1.40;99.90;;;;;;5017314;28;20250;-75
2023/01/22 10:31:39;;;;;;;;;;;-1.50;99.90;;;;;;5016657;28;19914;-75
2023/01/22 10:34:22;;;;;;;;;;;-1.60;99.90;;;;;;5016696;28;19913;-75
2023/01/22 10:36:52;;;;;;;;;;;-1.60;99.90;;;;;;5016771;28;19916;-75
2023/01/22 10:39:18;;;;;;;;;;;-1.60;99.90;;;;;;4998747;28;20361;-75
2023/01/22 10:41:45;;;;;;;;;;;-1.60;99.90;;;;;;5014991;28;19956;-75
2023/01/22 10:44:13;;;;;;;;;;;-1.60;99.90;;;;;;5016223;28;20328;-75
2023/01/22 10:46:39;;;;;;;;;;;-1.60;99.90;;;;;;5016519;28;20003;-77
2023/01/22 10:49:07;;;;;;;;;;;-1.60;99.90;;;;;;5016216;28;19913;-75
2023/01/22 10:51:40;;;;;;;;;;;-1.60;99.90;;;;;;5016654;28;19913;-78
2023/01/22 10:54:17;;;;;;;;;;;-1.60;99.90;;;;;;5018677;28;19992;-79
2023/01/22 10:56:43;;;;;;;;;;;-1.60;99.90;;;;;;5019247;28;19919;-82
2023/01/22 10:59:23;;;;;;;;;;;-1.50;99.90;;;;;;5026309;28;19977;-81
2023/01/22 11:01:55;;;;;;;;;;;-1.50;99.90;;;;;;5055217;22;19924;-79
2023/01/22 11:04:26;;;;;;;;;;;-1.40;99.90;;;;;;5055320;28;20315;-79
2023/01/22 11:06:57;;;;;;;;;;;-1.40;99.90;;;;;;5057583;28;20272;-79
2023/01/22 11:09:22;;;;;;;;;;;-1.30;99.90;;;;;;5056190;28;19913;-80
2023/01/22 11:11:55;;;;;;;;;;;-1.30;99.90;;;;;;5094471;28;19916;-80
2023/01/22 11:14:32;;;;;;;;;;;-1.30;99.90;;;;;;5078362;28;20352;-80
2023/01/22 11:17:01;;;;;;;;;;;-1.30;99.90;;;;;;5079460;22;19924;-73
2023/01/22 11:19:28;;;;;;;;;;;-1.40;99.90;;;;;;5075308;28;19908;-72
2023/01/22 11:21:55;;;;;;;;;;;-1.30;99.90;;;;;;5075328;28;19908;-73
2023/01/22 11:24:28;;;;;;;;;;;-1.20;99.90;;;;;;5073445;28;19909;-73
2023/01/22 11:26:56;;;;;;;;;;;-1.10;99.90;;;;;;5071189;28;19952;-73
2023/01/22 11:29:34;;;;;;;;;;;-1.00;99.90;;;;;;5076458;22;19928;-79
2023/01/22 11:32:18;;;;;;;;;;;-0.80;99.90;;;;;;5058692;28;19912;-79
2023/01/22 11:34:43;;;;;;;;;;;-0.60;99.90;;;;;;5058427;28;20364;-79
2023/01/22 11:37:13;;;;;;;;;;;-0.50;99.90;;;;;;5058586;28;19908;-78
2023/01/22 11:39:47;;;;;;;;;;;-0.40;99.90;;;;;;5058648;28;20360;-79
2023/01/22 11:42:26;;;;;;;;;;;-0.30;99.90;;;;;;5060419;28;20424;-79
2023/01/22 11:44:52;;;;;;;;;;;-0.20;99.90;;;;;;5063861;28;20003;-79
2023/01/22 11:47:28;;;;;;;;;;;-0.10;99.90;;;;;;5061877;28;19956;-79
2023/01/22 11:50:15;;;;;;;;;;;-0.10;99.90;;;;;;5061333;28;20466;-79
2023/01/22 11:52:46;;;;;;;;;;;0.00;99.90;;;;;;5059744;28;19913;-79
2023/01/22 11:55:15;;;;;;;;;;;0.00;99.90;;;;;;5059005;28;19912;-79
2023/01/22 11:57:42;;;;;;;;;;;0.10;99.90;;;;;;5060156;28;19962;-79
2023/01/22 12:00:17;;;;;;;;;;;0.10;99.90;;;;;;5060521;28;19905;-79
2023/01/22 12:02:45;;;;;;;;;;;0.10;99.90;;;;;;5059320;28;19909;-79
2023/01/22 12:05:11;;;;;;;;;;;0.00;99.90;;;;;;5060257;28;19909;-79
2023/01/22 12:08:07;;;;;;;;;;;0.00;99.90;;;;;;5060568;28;19920;-79
2023/01/22 12:10:33;;;;;;;;;;;0.00;99.90;;;;;;5043542;28;20265;-79
2023/01/22 12:13:18;;;;;;;;;;;0.00;99.90;;;;;;5060368;28;19912;-79
2023/01/22 12:15:59;;;;;;;;;;;0.00;99.90;;;;;;5060222;28;19952;-79
2023/01/22 12:18:43;;;;;;;;;;;-0.10;99.90;;;;;;5059511;28;19919;-79
2023/01/22 12:21:11;;;;;;;;;;;-0.10;99.90;;;;;;5059762;28;19909;-79
2023/01/22 12:23:39;;;;;;;;;;;-0.10;99.90;;;;;;5059319;28;19909;-79
2023/01/22 12:26:17;;;;;;;;;;;-0.20;99.90;;;;;;5059382;28;20356;-79
2023/01/22 12:28:46;;;;;;;;;;;-0.20;99.90;;;;;;5059592;28;19916;-79
2023/01/22 12:31:17;;;;;;;;;;;-0.20;99.90;;;;;;5058892;28;19974;-79
2023/01/22 12:33:44;;;;;;;;;;;-0.20;99.90;;;;;;5059082;28;19909;-79
2023/01/22 12:36:15;;;;;;;;;;;-0.20;99.90;;;;;;5058544;28;20376;-79
2023/01/22 12:38:52;;;;;;;;;;;-0.20;99.90;;;;;;5040969;28;19919;-79
2023/01/22 12:41:36;;;;;;;;;;;-0.20;99.90;;;;;;5058958;28;20388;-79
2023/01/22 12:44:14;;;;;;;;;;;-0.20;99.90;;;;;;5057224;28;19909;-77
2023/01/22 12:46:58;;;;;;;;;;;-0.20;99.90;;;;;;5055069;28;19909;-77
2023/01/22 12:49:25;;;;;;;;;;;-0.20;99.90;;;;;;5064360;28;19916;-77
2023/01/22 12:51:51;;;;;;;;;;;-0.20;99.90;;;;;;5063146;28;19948;-78
2023/01/22 12:54:28;;;;;;;;;;;-0.10;99.90;;;;;;5056178;28;19909;-78
2023/01/22 12:56:56;;;;;;;;;;;-0.10;99.90;;;;;;5055843;28;20261;-77
2023/01/22 12:59:34;;;;;;;;;;;0.00;99.90;;;;;;5055184;28;19908;-77
2023/01/22 13:02:01;;;;;;;;;;;0.00;99.90;;;;;;5055494;28;20438;-77
2023/01/22 13:04:27;;;;;;;;;;;0.00;99.90;;;;;;5054756;28;20291;-77
2023/01/22 13:07:02;;;;;;;;;;;0.00;99.90;;;;;;5052983;28;20276;-77
2023/01/22 13:09:33;;;;;;;;;;;0.00;99.90;;;;;;5054353;28;19995;-77
2023/01/22 13:12:09;;;;;;;;;;;0.00;99.90;;;;;;5054453;28;19978;-79
2023/01/22 13:14:38;;;;;;;;;;;0.00;99.90;;;;;;5055654;28;19996;-79
2023/01/22 13:17:15;;;;;;;;;;;0.00;99.90;;;;;;5052947;28;19975;-79
2023/01/22 13:19:43;;;;;;;;;;;0.00;99.90;;;;;;5040586;28;19909;-78
2023/01/22 13:22:12;;;;;;;;;;;0.00;99.90;;;;;;5041400;28;19909;-79
2023/01/22 13:24:46;;;;;;;;;;;0.00;99.90;;;;;;5040468;28;19920;-79
2023/01/22 13:27:19;;;;;;;;;;;0.10;99.90;;;;;;5058443;28;19913;-79
2023/01/22 13:29:45;;;;;;;;;;;0.20;99.90;;;;;;5044010;28;19944;-79
2023/01/22 13:32:18;;;;;;;;;;;0.20;99.90;;;;;;5043591;28;19913;-79
2023/01/22 13:34:44;;;;;;;;;;;0.20;99.90;;;;;;5040229;28;19916;-77
2023/01/22 13:37:20;;;;;;;;;;;0.20;99.90;;;;;;5041547;28;19909;-79
2023/01/22 13:39:46;;;;;;;;;;;0.30;99.90;;;;;;5039008;28;19909;-78
2023/01/22 13:42:11;;;;;;;;;;;0.30;99.90;;;;;;5041032;28;19929;-79
2023/01/22 13:44:39;;;;;;;;;;;0.30;99.90;;;;;;5041903;28;19923;-79
2023/01/22 13:47:05;;;;;;;;;;;0.30;99.90;;;;;;5054240;28;19942;-78
2023/01/22 13:49:31;;;;;;;;;;;0.30;99.90;;;;;;5059559;28;19916;-79
2023/01/22 13:52:07;;;;;;;;;;;0.30;99.90;;;;;;5060184;28;19958;-79
2023/01/22 13:54:44;;;;;;;;;;;0.30;99.90;;;;;;5060254;28;19916;-78
2023/01/22 13:57:13;;;;;;;;;;;0.30;99.90;;;;;;5059600;28;19915;-79
2023/01/22 13:59:39;;;;;;;;;;;0.30;99.90;;;;;;5042682;28;19910;-78
2023/01/22 14:02:20;;;;;;;;;;;0.20;99.90;;;;;;5040624;28;19963;-78
2023/01/22 14:04:47;;;;;;;;;;;0.20;99.90;;;;;;5039821;28;19932;-78
2023/01/22 14:07:33;;;;;;;;;;;0.20;99.90;;;;;;5038707;28;19976;-79
2023/01/22 14:10:13;;;;;;;;;;;0.10;99.90;;;;;;5045113;28;20003;-78
2023/01/22 14:12:38;;;;;;;;;;;0.10;99.90;;;;;;5059665;28;20261;-78
2023/01/22 14:15:18;;;;;;;;;;;0.10;99.90;;;;;;5058393;28;19916;-79
2023/01/22 14:17:44;;;;;;;;;;;0.10;99.90;;;;;;5059826;28;19947;-79
2023/01/22 14:20:10;;;;;;;;;;;0.00;99.90;;;;;;5060424;28;19909;-79
2023/01/22 14:22:35;;;;;;;;;;;0.00;99.90;;;;;;5060120;28;19909;-79
2023/01/22 14:25:02;;;;;;;;;;;0.00;99.90;;;;;;5060043;28;20000;-79
2023/01/22 14:27:37;;;;;;;;;;;-0.10;99.90;;;;;;5058756;28;19951;-78
2023/01/22 14:30:03;;;;;;;;;;;-0.10;99.90;;;;;;5057805;28;19939;-76